Pentz, California
Current Conditions -  °F | °C
As of 10:53 PM on Wednesday 22 Oct 2014 (Local Time) from KOVE Reporting Station
Clear Clear  
Wind Chill: 63°   Ceiling: Unl
Heat Index: 63°   Visibility: 10mi
Dew Point: 48°   Wind: 3mph
Humidity: 58%   Direction: 120°ESE
Pressure: 30.03"   Gusts: NA
Location:  39.5324°N, 121.648°W
Report Text: KOVE 230553Z AUTO 12003KT 10SM CLR 17/09 A3003 RMK AO2 SLP169 T01720089 10222 20172 $
Loading
Personal Weather Stations






























Interactive Weather Map
Tropical Storm Tracking
New forecast layout! Learn more

10-Day Weather Forecast

Advertisements
Track Severe Weather on mobile